Time;durP1;ratioP1;P1;durP2;ratioP2;P2;SDS_P1;SDS_P2;PMS_P1;PMS_P2;Temp;Humidity;BMP_temperature;BMP_pressure;BME280_temperature;BME280_humidity;BME280_pressure;Samples;Min_cycle;Max_cycle;Signal;HPM_P1;HPM_P2
2023/01/11 00:00:37;;;;;;;12.80;4.03;;;6.50;99.90;;;;;;5028141;28;20030;-53
2023/01/11 00:03:23;;;;;;;12.65;4.47;;;6.60;99.90;;;;;;5013258;28;20139;-53
2023/01/11 00:06:10;;;;;;;8.25;3.50;;;6.50;99.90;;;;;;5014438;28;20026;-51
2023/01/11 00:08:57;;;;;;;11.75;3.42;;;6.50;99.90;;;;;;5011751;28;20034;-55
2023/01/11 00:11:43;;;;;;;8.23;2.85;;;6.50;99.90;;;;;;4996690;28;20125;-53
2023/01/11 00:14:29;;;;;;;8.77;3.22;;;6.50;99.90;;;;;;5013110;28;20041;-53
2023/01/11 00:17:19;;;;;;;10.93;3.75;;;6.40;99.90;;;;;;5031818;28;20026;-53
2023/01/11 00:20:05;;;;;;;13.82;3.88;;;6.40;99.90;;;;;;5014607;28;20363;-49
2023/01/11 00:22:51;;;;;;;9.30;3.50;;;6.40;99.90;;;;;;5012946;28;20063;-50
2023/01/11 00:25:37;;;;;;;12.40;4.00;;;6.50;99.90;;;;;;4978730;28;20038;-58
2023/01/11 00:28:23;;;;;;;11.13;3.50;;;6.40;99.90;;;;;;4981149;28;20031;-51
2023/01/11 00:31:09;;;;;;;5.38;3.00;;;6.40;99.90;;;;;;5031828;28;20117;-53
2023/01/11 00:33:56;;;;;;;8.80;3.05;;;6.40;99.90;;;;;;5020783;28;20160;-55
2023/01/11 00:36:42;;;;;;;8.30;3.50;;;6.40;99.90;;;;;;5005672;28;20084;-53
2023/01/11 00:39:28;;;;;;;8.43;2.80;;;6.40;99.90;;;;;;5008093;28;20026;-53
2023/01/11 00:48:23;;;;;;;7.65;2.78;;;6.30;99.90;;;;;;5013024;28;20030;-53
2023/01/11 00:51:09;;;;;;;10.52;3.53;;;6.20;99.90;;;;;;5010169;28;20501;-50
2023/01/11 00:53:55;;;;;;;5.32;2.50;;;6.20;99.90;;;;;;5011163;28;20033;-53
2023/01/11 00:56:40;;;;;;;6.97;2.70;;;6.20;99.90;;;;;;4993413;28;20505;-55
2023/01/11 00:59:26;;;;;;;5.43;2.42;;;6.10;99.90;;;;;;4995265;28;20494;-50
2023/01/11 01:02:12;;;;;;;7.07;3.28;;;6.10;99.90;;;;;;5010611;28;20376;-55
2023/01/11 01:04:59;;;;;;;8.38;3.40;;;6.10;99.90;;;;;;5020477;28;20108;-55
2023/01/11 01:07:45;;;;;;;5.53;2.63;;;6.00;99.90;;;;;;5016932;28;20034;-54
2023/01/11 01:10:31;;;;;;;7.10;2.70;;;6.00;99.90;;;;;;4991775;28;20082;-55
2023/01/11 01:16:22;;;;;;;7.10;2.97;;;6.00;99.90;;;;;;5010986;28;20030;-55
2023/01/11 01:19:08;;;;;;;2.90;2.50;;;6.10;99.90;;;;;;5011218;28;20093;-49
2023/01/11 01:21:56;;;;;;;7.18;2.65;;;6.10;99.90;;;;;;5011417;28;20038;-49
2023/01/11 01:24:41;;;;;;;5.28;2.35;;;6.10;99.90;;;;;;5008996;28;20026;-47
2023/01/11 01:27:27;;;;;;;5.80;2.50;;;6.10;99.90;;;;;;5003152;28;20030;-50
2023/01/11 01:30:13;;;;;;;9.75;2.88;;;6.20;99.90;;;;;;5020224;28;20029;-52
2023/01/11 01:32:59;;;;;;;5.82;2.50;;;6.10;99.90;;;;;;5016234;28;20021;-57
2023/01/11 01:35:45;;;;;;;5.72;2.40;;;6.20;99.90;;;;;;5009135;28;20030;-54
2023/01/11 01:38:31;;;;;;;7.45;2.40;;;6.10;99.90;;;;;;5011085;28;20026;-52
2023/01/11 01:41:18;;;;;;;7.65;2.42;;;6.10;99.90;;;;;;4999318;28;20089;-49
2023/01/11 01:44:43;;;;;;;5.93;2.60;;;6.10;99.90;;;;;;5012006;28;20034;-51
2023/01/11 01:47:38;;;;;;;8.27;2.90;;;6.20;99.90;;;;;;5016043;28;21072;-50
2023/01/11 01:50:50;;;;;;;6.90;3.05;;;6.20;99.90;;;;;;5010612;28;20040;-54
2023/01/11 01:53:41;;;;;;;5.38;2.67;;;6.20;99.90;;;;;;5016255;28;20109;-55
2023/01/11 01:56:37;;;;;;;6.50;2.70;;;6.20;99.90;;;;;;4998896;28;20022;-49
2023/01/11 01:59:26;;;;;;;7.20;2.60;;;6.10;99.90;;;;;;5011329;28;20029;-49
2023/01/11 02:02:12;;;;;;;5.57;2.45;;;6.10;99.90;;;;;;5016229;28;20105;-52
2023/01/11 02:04:58;;;;;;;4.50;2.22;;;6.10;99.90;;;;;;5012751;28;20030;-53
2023/01/11 02:07:45;;;;;;;6.50;2.72;;;6.10;99.90;;;;;;5014650;28;20029;-53
2023/01/11 02:10:32;;;;;;;5.20;2.60;;;6.20;99.90;;;;;;5007305;28;20030;-48
2023/01/11 02:13:19;;;;;;;6.22;3.22;;;6.20;99.90;;;;;;4996110;28;20510;-47
2023/01/11 02:16:08;;;;;;;5.05;2.90;;;6.20;99.90;;;;;;5011979;28;20037;-52
2023/01/11 02:18:56;;;;;;;6.97;2.47;;;6.20;99.90;;;;;;5013933;28;20036;-50
2023/01/11 02:22:03;;;;;;;4.07;2.40;;;6.20;99.90;;;;;;5021108;28;20418;-51
2023/01/11 02:25:20;;;;;;;4.97;2.40;;;6.10;99.90;;;;;;5032815;28;20045;-51
2023/01/11 02:28:30;;;;;;;4.63;2.53;;;6.10;99.90;;;;;;5002806;28;20062;-52
2023/01/11 02:31:37;;;;;;;5.22;2.55;;;6.20;99.90;;;;;;5030750;28;20088;-48
2023/01/11 02:34:26;;;;;;;6.15;2.92;;;6.20;99.90;;;;;;5027776;28;20404;-53
2023/01/11 02:37:12;;;;;;;8.05;2.90;;;6.20;99.90;;;;;;5033461;28;20026;-48
2023/01/11 02:40:33;;;;;;;4.78;2.80;;;6.20;99.90;;;;;;5014620;28;20436;-48
2023/01/11 02:46:48;;;;;;;6.82;3.28;;;6.30;99.90;;;;;;5035627;28;20034;-57
2023/01/11 02:49:34;;;;;;;7.65;3.22;;;6.30;99.90;;;;;;5020192;28;20057;-50
2023/01/11 02:52:35;;;;;;;6.43;2.50;;;6.30;99.90;;;;;;5028821;28;20040;-54
2023/01/11 02:55:30;;;;;;;5.57;2.60;;;6.30;99.90;;;;;;5033084;28;20053;-51
2023/01/11 02:58:18;;;;;;;5.95;2.70;;;6.30;99.90;;;;;;4994825;28;20030;-55
2023/01/11 03:01:05;;;;;;;7.75;2.50;;;6.30;99.90;;;;;;5000756;28;20034;-49
2023/01/11 03:03:52;;;;;;;4.93;2.50;;;6.30;99.90;;;;;;5033693;28;20033;-46
2023/01/11 03:06:38;;;;;;;4.47;2.42;;;6.30;99.90;;;;;;5025183;28;20026;-52
2023/01/11 03:09:33;;;;;;;9.00;2.95;;;6.30;99.90;;;;;;4999705;28;20033;-56
2023/01/11 03:12:54;;;;;;;5.18;2.40;;;6.30;99.90;;;;;;5026126;28;20036;-48
2023/01/11 03:16:34;;;;;;;5.55;2.42;;;6.40;99.90;;;;;;4997955;28;20025;-47
2023/01/11 03:19:47;;;;;;;4.80;2.55;;;6.40;99.90;;;;;;4933988;29;20417;-54
2023/01/11 03:22:47;;;;;;;5.22;2.75;;;6.40;99.90;;;;;;4934809;28;20024;-48
2023/01/11 03:25:33;;;;;;;5.65;2.58;;;6.40;99.90;;;;;;5028099;28;20029;-49
2023/01/11 03:28:36;;;;;;;6.68;2.83;;;6.50;99.90;;;;;;5032197;28;20109;-51
2023/01/11 03:31:31;;;;;;;6.55;2.35;;;6.50;99.90;;;;;;4980749;28;20038;-51
2023/01/11 03:35:01;;;;;;;7.55;2.55;;;6.50;99.90;;;;;;5001794;28;20149;-53
2023/01/11 03:37:54;;;;;;;6.55;2.55;;;6.60;99.90;;;;;;5001313;28;20502;-52
2023/01/11 03:40:48;;;;;;;4.97;2.53;;;6.60;99.90;;;;;;4980326;28;20023;-53
2023/01/11 03:43:37;;;;;;;4.20;2.20;;;6.60;99.90;;;;;;5032070;28;20092;-48
2023/01/11 03:46:33;;;;;;;3.97;2.30;;;6.60;99.90;;;;;;5032065;28;20378;-56
2023/01/11 03:49:26;;;;;;;;;;;6.70;99.90;;;;;;5013914;28;20037;-50
2023/01/11 03:52:15;;;;;;;6.13;2.60;;;6.80;99.90;;;;;;5018611;28;19913;-51
2023/01/11 03:55:05;;;;;;;3.38;2.22;;;6.80;99.90;;;;;;5017551;28;20022;-48
2023/01/11 03:57:53;;;;;;;3.28;2.20;;;6.80;99.90;;;;;;5006867;28;20034;-53
2023/01/11 04:00:40;;;;;;;3.53;2.20;;;6.80;99.90;;;;;;5014148;28;20477;-48
2023/01/11 04:03:27;;;;;;;3.67;2.40;;;6.80;99.90;;;;;;5028756;28;20151;-51
2023/01/11 04:06:13;;;;;;;3.63;2.60;;;6.80;99.90;;;;;;5016977;28;20040;-53
2023/01/11 04:08:59;;;;;;;4.93;3.20;;;6.80;99.90;;;;;;5012724;28;20522;-51
2023/01/11 04:11:45;;;;;;;6.82;4.28;;;6.90;99.90;;;;;;5012907;28;20548;-54
2023/01/11 04:14:31;;;;;;;5.22;2.60;;;6.70;99.90;;;;;;5030908;28;20025;-51
2023/01/11 04:17:17;;;;;;;3.53;2.42;;;6.80;99.90;;;;;;5011322;28;20030;-51
2023/01/11 04:20:03;;;;;;;6.38;2.75;;;6.80;99.90;;;;;;5018163;28;20033;-54
2023/01/11 04:22:49;;;;;;;4.40;2.80;;;6.80;99.90;;;;;;5032706;28;20036;-54
2023/01/11 04:25:35;;;;;;;4.30;2.30;;;6.70;99.90;;;;;;5023038;28;20037;-55
2023/01/11 04:28:21;;;;;;;3.60;2.20;;;6.80;99.90;;;;;;5016663;28;20121;-54
2023/01/11 04:31:07;;;;;;;7.15;2.72;;;6.80;99.90;;;;;;5032752;28;20062;-54
2023/01/11 04:33:52;;;;;;;5.25;2.47;;;6.80;99.90;;;;;;5022723;28;20037;-54
2023/01/11 04:36:38;;;;;;;5.55;2.63;;;6.80;99.90;;;;;;4984263;28;20100;-54
2023/01/11 04:39:24;;;;;;;6.05;2.60;;;6.80;99.90;;;;;;5024307;28;20030;-53
2023/01/11 04:42:17;;;;;;;4.03;2.17;;;6.80;99.90;;;;;;5031002;28;20532;-56
2023/01/11 04:45:06;;;;;;;4.20;2.55;;;6.80;99.90;;;;;;5026974;28;20048;-53
2023/01/11 04:47:54;;;;;;;4.78;2.50;;;6.80;99.90;;;;;;5026729;28;20442;-52
2023/01/11 04:50:40;;;;;;;9.98;3.22;;;6.80;99.90;;;;;;5011956;28;20041;-52
2023/01/11 04:53:26;;;;;;;3.22;2.58;;;6.80;99.90;;;;;;5018743;28;20052;-54
2023/01/11 04:56:12;;;;;;;3.03;2.28;;;6.80;99.90;;;;;;5031503;28;20111;-54
2023/01/11 04:58:58;;;;;;;4.30;2.67;;;6.80;99.90;;;;;;5030572;28;20034;-54
2023/01/11 05:01:44;;;;;;;7.60;2.75;;;6.70;99.90;;;;;;5031290;28;20505;-51
2023/01/11 05:04:30;;;;;;;4.63;2.70;;;6.70;99.90;;;;;;5015522;28;20072;-53
2023/01/11 05:07:16;;;;;;;5.07;2.65;;;6.70;99.90;;;;;;5012228;28;20030;-51
2023/01/11 05:10:02;;;;;;;4.78;2.80;;;6.60;99.90;;;;;;5028683;28;20037;-52
2023/01/11 05:12:49;;;;;;;5.97;2.65;;;6.70;99.90;;;;;;4997751;28;20029;-56
2023/01/11 05:15:35;;;;;;;5.38;2.80;;;6.70;99.90;;;;;;5012428;28;20524;-55
2023/01/11 05:18:21;;;;;;;4.35;2.80;;;6.70;99.90;;;;;;5031127;28;20076;-53
2023/01/11 05:21:09;;;;;;;3.85;2.72;;;6.80;99.90;;;;;;5026576;28;20033;-51
2023/01/11 05:23:55;;;;;;;4.85;2.55;;;6.80;99.90;;;;;;5024659;28;20113;-56
2023/01/11 05:26:43;;;;;;;4.72;2.45;;;6.80;99.90;;;;;;5018871;28;20017;-51
2023/01/11 05:29:29;;;;;;;5.60;3.05;;;6.80;99.90;;;;;;5030036;28;20425;-55
2023/01/11 05:32:15;;;;;;;3.75;2.88;;;6.70;99.90;;;;;;5018479;28;20050;-53
2023/01/11 05:35:01;;;;;;;5.03;2.45;;;6.80;99.90;;;;;;5010612;28;20041;-55
2023/01/11 05:37:47;;;;;;;4.50;2.35;;;6.80;99.90;;;;;;5027241;28;20034;-52
2023/01/11 05:40:33;;;;;;;6.25;4.03;;;6.80;99.90;;;;;;5013464;28;20534;-54
2023/01/11 05:43:19;;;;;;;7.40;3.28;;;6.80;99.90;;;;;;5012044;28;20049;-59
2023/01/11 05:46:05;;;;;;;6.25;2.65;;;6.80;99.90;;;;;;4991815;28;20034;-51
2023/01/11 05:48:53;;;;;;;4.85;2.75;;;6.80;99.90;;;;;;4995313;28;20061;-52
2023/01/11 05:51:40;;;;;;;4.32;3.08;;;6.90;99.90;;;;;;5030293;28;20029;-53
2023/01/11 05:54:26;;;;;;;4.65;2.67;;;6.90;99.90;;;;;;5016520;28;20049;-58
2023/01/11 05:57:12;;;;;;;4.45;2.85;;;6.90;99.90;;;;;;5030054;28;20505;-54
2023/01/11 05:59:58;;;;;;;7.43;3.30;;;6.90;99.90;;;;;;5020759;28;20056;-55
2023/01/11 06:02:44;;;;;;;4.88;2.70;;;7.00;99.90;;;;;;4997095;28;20109;-53
2023/01/11 06:05:33;;;;;;;3.47;2.60;;;7.00;99.90;;;;;;5023488;28;20037;-53
2023/01/11 06:08:19;;;;;;;4.75;2.95;;;7.00;99.90;;;;;;5013655;28;20036;-53
2023/01/11 06:11:05;;;;;;;3.78;2.85;;;7.00;99.90;;;;;;5017524;28;20456;-56
2023/01/11 06:13:51;;;;;;;5.22;3.20;;;7.10;99.90;;;;;;5029850;28;20037;-52
2023/01/11 06:16:37;;;;;;;3.63;2.70;;;7.10;99.90;;;;;;5016792;28;20042;-53
2023/01/11 06:19:23;;;;;;;4.13;2.80;;;7.10;99.90;;;;;;5015634;28;20042;-52
2023/01/11 06:22:09;;;;;;;3.72;2.70;;;7.20;99.90;;;;;;5029349;28;20095;-55
2023/01/11 06:24:55;;;;;;;4.60;2.80;;;7.20;99.90;;;;;;5019745;28;20069;-50
2023/01/11 06:27:41;;;;;;;3.75;2.30;;;7.20;99.90;;;;;;5013180;28;20069;-51
2023/01/11 06:30:27;;;;;;;3.00;2.53;;;7.20;99.90;;;;;;4997988;28;20113;-55
2023/01/11 06:33:12;;;;;;;3.58;2.40;;;7.30;99.90;;;;;;5029361;28;20029;-47
2023/01/11 06:36:03;;;;;;;3.05;2.35;;;7.30;99.90;;;;;;5018526;28;20486;-60
2023/01/11 06:38:49;;;;;;;3.50;2.67;;;7.40;99.90;;;;;;5011392;28;20034;-48
2023/01/11 06:41:35;;;;;;;3.83;2.53;;;7.40;99.90;;;;;;5026774;28;20033;-51
2023/01/11 06:44:20;;;;;;;4.35;2.40;;;7.50;99.90;;;;;;5031030;28;20030;-49
2023/01/11 06:47:06;;;;;;;3.40;2.05;;;7.50;99.90;;;;;;4991431;28;20113;-50
2023/01/11 06:49:52;;;;;;;2.75;1.98;;;7.50;99.90;;;;;;4993228;28;20046;-51
2023/01/11 06:52:38;;;;;;;2.08;1.52;;;7.50;99.90;;;;;;5030040;28;20064;-52
2023/01/11 06:55:26;;;;;;;2.63;1.92;;;7.50;99.90;;;;;;5016629;28;20028;-55
2023/01/11 06:58:12;;;;;;;1.92;1.73;;;7.50;99.90;;;;;;5009163;28;20033;-53
2023/01/11 07:00:58;;;;;;;1.63;1.50;;;7.60;99.90;;;;;;5021718;28;20041;-50
2023/01/11 07:03:44;;;;;;;2.55;1.80;;;7.50;99.90;;;;;;4996242;28;20030;-49
2023/01/11 07:06:34;;;;;;;2.85;2.10;;;7.50;99.90;;;;;;5028939;28;20029;-49
2023/01/11 07:09:19;;;;;;;1.48;1.38;;;7.60;99.90;;;;;;5026100;28;20076;-54
2023/01/11 07:12:05;;;;;;;3.92;1.80;;;7.60;99.90;;;;;;4998189;28;20040;-48
2023/01/11 07:14:51;;;;;;;4.03;1.80;;;7.60;99.90;;;;;;5018825;28;20021;-58
2023/01/11 07:17:37;;;;;;;3.75;1.90;;;7.60;99.90;;;;;;4993508;28;20089;-50
2023/01/11 07:20:24;;;;;;;2.30;1.80;;;7.60;99.90;;;;;;5015372;28;20048;-48
2023/01/11 07:23:10;;;;;;;2.38;1.75;;;7.70;99.90;;;;;;5033928;28;20084;-48
2023/01/11 07:25:56;;;;;;;2.55;1.83;;;7.70;99.90;;;;;;5018909;28;20038;-51
2023/01/11 07:28:42;;;;;;;2.50;2.00;;;7.70;99.90;;;;;;5002371;28;20386;-50
2023/01/11 07:31:28;;;;;;;3.20;1.95;;;7.70;99.90;;;;;;5029795;28;20065;-53
2023/01/11 07:34:14;;;;;;;3.45;2.20;;;7.70;99.90;;;;;;5026004;28;20041;-49
2023/01/11 07:37:00;;;;;;;3.00;1.90;;;7.70;99.90;;;;;;5013132;28;20026;-51
2023/01/11 07:39:47;;;;;;;2.60;1.90;;;7.80;99.90;;;;;;5001171;28;20037;-52
2023/01/11 07:45:39;;;;;;;8.60;2.95;;;7.80;99.90;;;;;;5011921;28;20062;-52
2023/01/11 07:48:26;;;;;;;15.25;3.85;;;7.80;99.90;;;;;;5010193;28;20084;-56
2023/01/11 07:51:12;;;;;;;3.35;2.13;;;7.80;99.90;;;;;;5008321;28;20409;-58
2023/01/11 07:54:01;;;;;;;3.45;2.20;;;7.80;99.90;;;;;;5012702;28;20025;-52
2023/01/11 07:56:47;;;;;;;8.43;2.38;;;7.80;99.90;;;;;;5031963;28;20104;-52
2023/01/11 07:59:33;;;;;;;5.47;2.60;;;7.80;99.90;;;;;;5032332;28;20032;-50
2023/01/11 08:02:19;;;;;;;12.35;3.28;;;7.90;99.90;;;;;;5015690;28;20526;-54
2023/01/11 08:05:05;;;;;;;5.32;2.58;;;7.90;99.90;;;;;;5023799;28;20407;-52
2023/01/11 08:07:51;;;;;;;52.20;10.52;;;7.90;99.90;;;;;;5027607;28;20084;-51
2023/01/11 08:10:37;;;;;;;5.55;2.85;;;7.90;99.90;;;;;;4998253;28;20034;-54
2023/01/11 08:16:27;;;;;;;4.93;2.80;;;8.00;99.90;;;;;;5013232;28;20034;-50
2023/01/11 08:19:13;;;;;;;7.60;2.83;;;8.10;99.90;;;;;;5013336;28;20036;-52
2023/01/11 08:21:59;;;;;;;3.33;2.60;;;8.10;99.90;;;;;;5010483;28;20048;-54
2023/01/11 08:24:45;;;;;;;4.28;2.35;;;8.10;99.90;;;;;;5018484;28;20033;-49
2023/01/11 08:27:31;;;;;;;4.25;2.40;;;8.10;99.90;;;;;;5019742;28;20088;-50
2023/01/11 08:30:17;;;;;;;3.30;2.35;;;8.10;99.90;;;;;;5017490;28;20588;-49
2023/01/11 08:33:04;;;;;;;3.13;2.13;;;8.20;99.90;;;;;;5015229;28;20571;-51
2023/01/11 08:35:50;;;;;;;3.83;2.42;;;8.20;99.90;;;;;;5013945;28;20021;-51
2023/01/11 08:38:36;;;;;;;3.42;2.60;;;8.20;99.90;;;;;;5012944;28;20030;-54
2023/01/11 08:41:23;;;;;;;2.60;2.00;;;8.20;99.90;;;;;;5012109;28;20026;-54
2023/01/11 08:44:09;;;;;;;2.30;1.98;;;8.20;99.90;;;;;;5011875;28;20705;-54
2023/01/11 08:46:55;;;;;;;4.55;2.10;;;8.20;99.90;;;;;;5007704;28;20037;-55
2023/01/11 08:49:41;;;;;;;2.28;2.08;;;8.30;99.90;;;;;;5010573;28;20402;-56
2023/01/11 08:52:27;;;;;;;5.05;2.30;;;8.30;99.90;;;;;;5015083;28;20510;-50
2023/01/11 08:55:13;;;;;;;5.78;2.38;;;8.30;99.90;;;;;;5008710;28;20029;-51
2023/01/11 08:57:59;;;;;;;4.63;2.30;;;8.30;99.90;;;;;;5008913;28;20029;-52
2023/01/11 09:00:46;;;;;;;2.97;2.20;;;8.30;99.90;;;;;;5013199;28;20068;-53
2023/01/11 09:03:33;;;;;;;4.07;1.90;;;8.30;99.90;;;;;;5019071;28;20029;-57
2023/01/11 09:06:19;;;;;;;2.75;2.13;;;8.30;99.90;;;;;;5021432;28;20034;-57
2023/01/11 09:09:05;;;;;;;2.65;2.00;;;8.30;99.90;;;;;;5020223;28;20563;-55
2023/01/11 09:11:53;;;;;;;2.65;2.00;;;8.30;99.90;;;;;;5014027;28;20025;-50
2023/01/11 09:14:40;;;;;;;5.43;3.80;;;8.30;99.90;;;;;;5020807;28;20030;-53
2023/01/11 09:17:26;;;;;;;3.42;2.28;;;8.30;99.90;;;;;;5022911;28;20397;-53
2023/01/11 09:20:12;;;;;;;28.05;7.38;;;8.30;99.90;;;;;;5017406;28;20079;-50
2023/01/11 09:22:58;;;;;;;34.28;7.35;;;8.40;99.90;;;;;;5021321;28;20045;-53
2023/01/11 09:25:44;;;;;;;50.72;7.07;;;8.40;99.90;;;;;;5026655;28;20033;-52
2023/01/11 09:28:30;;;;;;;56.88;9.88;;;8.40;99.90;;;;;;5025439;28;20036;-54
2023/01/11 09:31:16;;;;;;;10.63;2.30;;;8.40;99.90;;;;;;5007702;28;20064;-49
2023/01/11 09:34:04;;;;;;;2.88;1.95;;;8.40;99.90;;;;;;5006386;28;20454;-53
2023/01/11 09:36:50;;;;;;;4.38;2.40;;;8.40;99.90;;;;;;5013439;28;20085;-57
2023/01/11 09:39:36;;;;;;;4.28;2.90;;;8.40;99.90;;;;;;5013978;28;20570;-54
2023/01/11 09:42:36;;;;;;;5.07;2.08;;;8.50;99.90;;;;;;5009182;28;20708;-54
2023/01/11 09:45:27;;;;;;;2.95;1.88;;;8.50;99.90;;;;;;5008825;28;20108;-55
2023/01/11 09:48:35;;;;;;;4.20;2.30;;;8.50;99.90;;;;;;5009137;28;20030;-55
2023/01/11 09:51:29;;;;;;;3.20;2.40;;;8.50;99.90;;;;;;5010275;28;20052;-54
2023/01/11 09:54:25;;;;;;;2.13;1.92;;;8.50;99.90;;;;;;5010848;28;20029;-53
2023/01/11 09:57:26;;;;;;;3.33;2.00;;;8.60;99.90;;;;;;5010615;28;20029;-54
2023/01/11 10:00:41;;;;;;;2.88;2.30;;;8.60;99.90;;;;;;5011520;28;20018;-52
2023/01/11 10:03:47;;;;;;;5.28;2.30;;;8.60;99.90;;;;;;5009263;28;20029;-57
2023/01/11 10:06:52;;;;;;;4.60;2.40;;;8.60;99.90;;;;;;5008135;28;20017;-53
2023/01/11 10:10:14;;;;;;;4.78;2.45;;;8.70;99.90;;;;;;5010218;28;20068;-55
2023/01/11 10:13:23;;;;;;;2.35;1.98;;;8.70;99.90;;;;;;5001286;28;20029;-54
2023/01/11 10:16:25;;;;;;;2.80;1.98;;;8.70;99.90;;;;;;4971225;28;20088;-51
2023/01/11 10:19:19;;;;;;;2.72;2.00;;;8.70;99.90;;;;;;4990943;28;20106;-53
2023/01/11 10:22:32;;;;;;;2.20;2.00;;;8.70;99.90;;;;;;5005051;28;20034;-54
2023/01/11 10:25:25;;;;;;;3.95;2.63;;;8.70;99.90;;;;;;4995954;28;20164;-50
2023/01/11 10:28:23;;;;;;;3.00;2.20;;;8.70;99.90;;;;;;5010395;28;20114;-56
2023/01/11 10:31:47;;;;;;;4.88;2.15;;;8.70;99.90;;;;;;5011316;28;20030;-54
2023/01/11 10:41:05;;;;;;;2.95;2.00;;;8.70;99.90;;;;;;5013011;28;20545;-55
2023/01/11 10:44:18;;;;;;;5.43;2.55;;;8.60;99.90;;;;;;5010715;28;20045;-53
2023/01/11 10:47:11;;;;;;;4.82;2.00;;;8.60;99.90;;;;;;5011283;28;20081;-52
2023/01/11 10:50:13;;;;;;;2.30;1.75;;;8.70;99.90;;;;;;5014229;28;20029;-51
2023/01/11 10:53:15;;;;;;;4.43;2.90;;;8.70;99.90;;;;;;5014838;28;20022;-54
2023/01/11 10:56:17;;;;;;;9.65;3.33;;;8.80;99.90;;;;;;5013577;28;20512;-52
2023/01/11 10:59:06;;;;;;;8.80;2.58;;;8.80;99.90;;;;;;5014664;28;20022;-54
2023/01/11 11:02:04;;;;;;;4.85;2.55;;;8.80;99.90;;;;;;5013668;28;20168;-58
2023/01/11 11:05:26;;;;;;;3.60;3.05;;;8.80;99.90;;;;;;5016256;28;20026;-55
2023/01/11 11:08:26;;;;;;;3.20;2.17;;;8.80;99.90;;;;;;5013388;28;20397;-56
2023/01/11 11:11:16;;;;;;;4.93;2.80;;;8.80;99.90;;;;;;5014121;28;20058;-54
2023/01/11 11:14:14;;;;;;;2.78;2.28;;;8.80;99.90;;;;;;5014126;28;20112;-57
2023/01/11 11:17:45;;;;;;;3.42;2.10;;;8.80;99.90;;;;;;5012497;28;20022;-57
2023/01/11 11:20:33;;;;;;;3.40;2.88;;;8.80;99.90;;;;;;5008831;28;20033;-55
2023/01/11 11:23:21;;;;;;;3.60;2.00;;;8.90;99.90;;;;;;5013028;28;20026;-56
2023/01/11 11:26:08;;;;;;;4.82;2.20;;;8.90;99.90;;;;;;4986913;28;20403;-55
2023/01/11 11:29:03;;;;;;;1.92;1.58;;;8.90;99.90;;;;;;5014616;28;20034;-56
2023/01/11 11:31:49;;;;;;;3.28;2.10;;;8.90;99.90;;;;;;5013177;28;20038;-55
2023/01/11 11:34:35;;;;;;;2.75;2.00;;;8.90;99.90;;;;;;5012907;28;20351;-52
2023/01/11 11:37:30;;;;;;;3.25;2.30;;;8.90;99.90;;;;;;5012103;28;20125;-50
2023/01/11 11:40:31;;;;;;;2.70;2.13;;;8.90;99.90;;;;;;5031059;28;20029;-50
2023/01/11 11:43:23;;;;;;;4.05;2.10;;;9.00;99.90;;;;;;5004101;28;20043;-50
2023/01/11 11:46:12;;;;;;;3.55;2.33;;;9.00;99.90;;;;;;5031858;28;20112;-62
2023/01/11 11:49:17;;;;;;;2.20;1.83;;;9.00;99.90;;;;;;5033187;28;20018;-59
2023/01/11 11:52:04;;;;;;;3.47;2.22;;;8.90;99.90;;;;;;5016408;28;20072;-54
2023/01/11 11:54:55;;;;;;;7.20;4.50;;;8.90;99.90;;;;;;5032612;28;20052;-53
2023/01/11 11:57:42;;;;;;;2.60;2.13;;;8.90;99.90;;;;;;5032106;28;20026;-54
2023/01/11 12:00:30;;;;;;;3.60;2.03;;;8.90;99.90;;;;;;5032320;28;20037;-54
2023/01/11 12:03:29;;;;;;;19.95;4.75;;;8.80;99.90;;;;;;5031625;28;20108;-60
2023/01/11 12:06:22;;;;;;;7.47;2.53;;;8.80;99.90;;;;;;5013207;28;20111;-56
2023/01/11 12:09:30;;;;;;;2.70;2.20;;;8.80;99.90;;;;;;5011949;28;20441;-56
2023/01/11 12:12:20;;;;;;;19.08;3.83;;;8.90;99.90;;;;;;5012631;28;20030;-56
2023/01/11 12:15:20;;;;;;;2.05;1.55;;;8.90;99.90;;;;;;4997548;28;20490;-50
2023/01/11 12:18:26;;;;;;;1.65;1.52;;;8.90;99.90;;;;;;5013258;28;20406;-51
2023/01/11 12:21:23;;;;;;;2.13;1.60;;;9.00;99.90;;;;;;5011991;28;20053;-61
2023/01/11 12:24:18;;;;;;;2.40;1.80;;;9.00;99.90;;;;;;5011719;28;20091;-57
2023/01/11 12:27:16;;;;;;;2.25;1.70;;;9.00;99.90;;;;;;5012089;28;20021;-55
2023/01/11 12:30:07;;;;;;;2.58;1.80;;;9.00;99.90;;;;;;5011898;28;20022;-56
2023/01/11 12:33:24;;;;;;;2.05;1.50;;;9.00;99.90;;;;;;5012562;28;20062;-58
2023/01/11 12:36:32;;;;;;;1.85;1.52;;;9.00;99.90;;;;;;4996801;28;20113;-56
2023/01/11 12:39:23;;;;;;;2.22;1.60;;;9.00;99.90;;;;;;5012415;28;20053;-50
2023/01/11 12:42:24;;;;;;;4.50;1.60;;;9.10;99.90;;;;;;5012589;28;20061;-52
2023/01/11 12:45:33;;;;;;;1.70;1.60;;;9.00;99.90;;;;;;5011051;28;20371;-54
2023/01/11 12:48:53;;;;;;;1.83;1.60;;;9.00;99.90;;;;;;5010524;28;20108;-59
2023/01/11 12:52:18;;;;;;;1.42;1.33;;;9.00;99.90;;;;;;4997688;28;20048;-56
2023/01/11 12:55:13;;;;;;;1.70;1.50;;;9.00;99.90;;;;;;5010520;28;20041;-55
2023/01/11 12:58:09;;;;;;;4.00;2.30;;;9.00;99.90;;;;;;5010941;28;20022;-57
2023/01/11 13:01:11;;;;;;;2.58;1.60;;;9.10;99.90;;;;;;5010931;28;20449;-56
2023/01/11 13:04:23;;;;;;;1.60;1.48;;;9.10;99.90;;;;;;4998707;28;20030;-58
2023/01/11 13:07:43;;;;;;;2.63;1.60;;;9.10;99.90;;;;;;5018438;28;20037;-58
2023/01/11 13:11:00;;;;;;;2.47;1.70;;;9.00;99.90;;;;;;5019773;28;20117;-58
2023/01/11 13:14:02;;;;;;;1.67;1.50;;;9.10;99.90;;;;;;4998439;28;20121;-57
2023/01/11 13:17:20;;;;;;;1.55;1.45;;;9.20;99.90;;;;;;5013305;28;20111;-60
2023/01/11 13:20:47;;;;;;;29.08;5.93;;;9.10;99.90;;;;;;5010702;28;20526;-55
2023/01/11 13:23:56;;;;;;;4.32;2.08;;;9.10;99.90;;;;;;5010777;28;20026;-59
2023/01/11 13:26:45;;;;;;;4.85;2.00;;;9.10;99.90;;;;;;5010649;28;20026;-60
2023/01/11 13:29:39;;;;;;;61.95;12.25;;;9.00;99.90;;;;;;5011782;28;20054;-53
2023/01/11 13:32:36;;;;;;;9.65;3.20;;;9.00;99.90;;;;;;5011692;28;20038;-57
2023/01/11 13:35:44;;;;;;;2.17;1.58;;;9.10;99.90;;;;;;4998140;28;20061;-61
2023/01/11 13:38:44;;;;;;;3.45;1.50;;;9.10;99.90;;;;;;5012286;28;20565;-58
2023/01/11 13:41:40;;;;;;;3.47;1.80;;;9.10;99.90;;;;;;5011706;28;20026;-59
2023/01/11 13:44:41;;;;;;;2.65;1.70;;;9.10;99.90;;;;;;5012196;28;20435;-59
2023/01/11 13:47:42;;;;;;;2.22;1.60;;;9.00;99.90;;;;;;5010202;28;20133;-58
2023/01/11 13:50:45;;;;;;;2.00;1.80;;;9.00;99.90;;;;;;5003650;28;20163;-58
2023/01/11 13:54:09;;;;;;;1.98;1.67;;;9.10;99.90;;;;;;5028755;28;20032;-53
2023/01/11 13:57:00;;;;;;;1.55;1.45;;;9.10;99.90;;;;;;5031495;28;20153;-53
2023/01/11 13:59:50;;;;;;;1.80;1.70;;;9.10;99.90;;;;;;5037859;28;20029;-58
2023/01/11 14:03:12;;;;;;;3.35;2.00;;;9.10;99.90;;;;;;5047405;28;20025;-57
2023/01/11 14:06:29;;;;;;;2.40;1.90;;;9.10;99.90;;;;;;5022285;28;20030;-59
2023/01/11 14:09:21;;;;;;;1.85;1.73;;;9.10;99.90;;;;;;5021293;28;20028;-59
2023/01/11 14:12:18;;;;;;;3.88;2.03;;;9.10;99.90;;;;;;5016581;28;20079;-56
2023/01/11 14:15:16;;;;;;;2.47;2.17;;;9.10;99.90;;;;;;5016560;28;20113;-54
2023/01/11 14:18:20;;;;;;;3.10;1.75;;;9.20;99.90;;;;;;5011471;28;20026;-57
2023/01/11 14:21:19;;;;;;;2.33;2.10;;;9.10;99.90;;;;;;5014611;28;20053;-57
2023/01/11 14:24:07;;;;;;;78.18;14.10;;;9.20;99.90;;;;;;5014735;28;20026;-55
2023/01/11 14:27:07;;;;;;;5.13;2.30;;;9.20;99.90;;;;;;5014792;28;20033;-54
2023/01/11 14:30:26;;;;;;;4.28;2.67;;;9.30;99.90;;;;;;5014924;28;20426;-59
2023/01/11 14:33:35;;;;;;;2.00;1.75;;;9.40;99.90;;;;;;5013845;28;20490;-51
2023/01/11 14:36:50;;;;;;;2.00;1.80;;;9.30;99.90;;;;;;4999439;28;20106;-55
2023/01/11 14:40:13;;;;;;;4.90;1.70;;;9.30;99.90;;;;;;5016157;28;20506;-52
2023/01/11 14:43:37;;;;;;;4.03;2.25;;;9.30;99.90;;;;;;5000487;28;20167;-59
2023/01/11 14:46:55;;;;;;;4.75;2.20;;;9.30;99.90;;;;;;5013814;28;20041;-56
2023/01/11 14:50:09;;;;;;;3.40;1.98;;;9.30;99.90;;;;;;4994685;28;20434;-61
2023/01/11 14:52:59;;;;;;;2.53;2.10;;;9.30;99.90;;;;;;5025609;28;20093;-61
2023/01/11 14:55:47;;;;;;;3.08;2.08;;;9.30;99.90;;;;;;5033041;28;20112;-57
2023/01/11 14:58:33;;;;;;;2.50;1.85;;;9.30;99.90;;;;;;5019013;28;20392;-56
2023/01/11 15:01:19;;;;;;;3.00;2.30;;;9.30;99.90;;;;;;5026256;28;20044;-60
2023/01/11 15:04:21;;;;;;;3.33;1.90;;;9.30;99.90;;;;;;5032207;28;20041;-59
2023/01/11 15:07:49;;;;;;;2.05;1.77;;;9.30;99.90;;;;;;5009952;28;20033;-60
2023/01/11 15:10:35;;;;;;;1.98;1.77;;;9.30;99.90;;;;;;4935106;28;20381;-61
2023/01/11 15:13:36;;;;;;;2.83;1.63;;;9.30;99.90;;;;;;4948255;28;20031;-60
2023/01/11 15:19:37;;;;;;;2.38;2.08;;;9.20;99.90;;;;;;5025925;28;20029;-60
2023/01/11 15:22:31;;;;;;;2.25;1.90;;;9.30;99.90;;;;;;5013575;28;20053;-59
2023/01/11 15:25:21;;;;;;;2.10;1.90;;;9.20;99.90;;;;;;5014069;28;20491;-61
2023/01/11 15:28:37;;;;;;;3.38;2.00;;;9.30;99.90;;;;;;5024742;28;20033;-59
2023/01/11 15:31:35;;;;;;;3.08;2.28;;;9.30;99.90;;;;;;5031897;28;20088;-59
2023/01/11 15:34:27;;;;;;;3.08;2.20;;;9.30;99.90;;;;;;4993933;28;20319;-62
2023/01/11 15:37:30;;;;;;;2.28;1.92;;;9.30;99.90;;;;;;5004538;28;20116;-57
2023/01/11 15:40:17;;;;;;;2.88;2.20;;;9.20;99.90;;;;;;4998292;28;20022;-58